Wetterdaten: aktuell Sonntag, 06.09.2026 22:30
Datum Zeit Temperatur Temp. +5 cm Temp. -10 cm Feuchte A. Luftdruck Regen Wind Richtung Richtung Zeit Sonne UV-I Solarstrahlg Taupunkt Windchill Windböen
06.09.2026 22:30 11,7 °C 7,8 °C 16,7 °C 84 % 1025,6 hPa 0,0 l/m² 0,8 km/h (0 Bft) S 179 ° 0 min 0,0 UV-I 0 W/m² 9,1 °C 11,7 °C 3,2 km/h (1 Bft)
06.09.2026 21:30 12,7 °C 8,9 °C 16,7 °C 81 % 1026,0 hPa 0,0 l/m² 0,0 km/h (0 Bft) S 179 ° 0 min 0,0 UV-I 0 W/m² 9,5 °C 12,7 °C 0,0 km/h (0 Bft)
06.09.2026 20:30 14,1 °C 9,4 °C 17,2 °C 76 % 1026,1 hPa 0,0 l/m² 0,1 km/h (0 Bft) S 179 ° 4 min 0,0 UV-I 0 W/m² 9,9 °C 14,1 °C 1,6 km/h (1 Bft)
06.09.2026 19:30 16,5 °C 12,2 °C 17,2 °C 68 % 1025,8 hPa 0,0 l/m² 0,0 km/h (0 Bft) N 360 ° 34 min 0,0 UV-I 30 W/m² 10,6 °C 16,5 °C 0,0 km/h (0 Bft)
06.09.2026 18:30 20,1 °C 16,7 °C 17,2 °C 54 % 1026,1 hPa 0,0 l/m² 0,1 km/h (0 Bft) N 352 ° 18 min 0,0 UV-I 54 W/m² 10,5 °C 20,1 °C 1,6 km/h (1 Bft)
06.09.2026 17:30 21,4 °C 18,9 °C 17,2 °C 52 % 1026,3 hPa 0,0 l/m² 4,1 km/h (1 Bft) W-NW 287 ° 60 min 0,8 UV-I 329 W/m² 11,1 °C 21,4 °C 9,7 km/h (2 Bft)
06.09.2026 16:30 21,4 °C 28,9 °C 17,2 °C 51 % 1026,5 hPa 0,0 l/m² 3,3 km/h (1 Bft) N 356 ° 54 min 1,5 UV-I 512 W/m² 10,8 °C 21,4 °C 11,3 km/h (2 Bft)
06.09.2026 15:30 21,4 °C 30,0 °C 16,7 °C 52 % 1026,9 hPa 0,0 l/m² 6,3 km/h (2 Bft) O-NO 60 ° 56 min 2,5 UV-I 642 W/m² 11,1 °C 21,4 °C 11,3 km/h (2 Bft)
06.09.2026 14:30 20,1 °C 23,9 °C 16,7 °C 54 % 1027,1 hPa 0,0 l/m² 7,9 km/h (2 Bft) N 350 ° 12 min 2,0 UV-I 207 W/m² 10,5 °C 20,1 °C 14,5 km/h (3 Bft)
06.09.2026 13:30 19,4 °C 23,9 °C 16,7 °C 54 % 1027,5 hPa 0,0 l/m² 5,1 km/h (1 Bft) NW 323 ° 34 min 3,1 UV-I 195 W/m² 9,8 °C 19,4 °C 8,0 km/h (2 Bft)
06.09.2026 12:30 20,2 °C 27,2 °C 16,1 °C 53 % 1027,4 hPa 0,0 l/m² 6,6 km/h (2 Bft) N-NO 13 ° 34 min 4,2 UV-I 900 W/m² 10,3 °C 20,2 °C 9,7 km/h (2 Bft)
06.09.2026 11:30 19,2 °C 27,2 °C 16,1 °C 54 % 1027,5 hPa 0,0 l/m² 8,0 km/h (2 Bft) NO 38 ° 56 min 3,4 UV-I 812 W/m² 9,7 °C 19,2 °C 12,9 km/h (3 Bft)
06.09.2026 10:30 17,4 °C 16,1 °C 15,6 °C 64 % 1027,4 hPa 0,0 l/m² 7,6 km/h (2 Bft) N 6 ° 60 min 2,2 UV-I 559 W/m² 10,5 °C 17,4 °C 12,9 km/h (3 Bft)
06.09.2026 09:30 15,5 °C 13,9 °C 15,6 °C 70 % 1027,3 hPa 0,0 l/m² 12,2 km/h (2 Bft) NW 326 ° 60 min 1,3 UV-I 418 W/m² 10,1 °C 15,5 °C 20,9 km/h (4 Bft)
06.09.2026 08:30 13,4 °C 12,8 °C 15,6 °C 77 % 1026,8 hPa 0,0 l/m² 6,1 km/h (2 Bft) W-NW 294 ° 22 min 0,7 UV-I 251 W/m² 9,5 °C 13,4 °C 9,7 km/h (2 Bft)
06.09.2026 07:30 11,6 °C 9,4 °C 15,6 °C 82 % 1026,3 hPa 0,0 l/m² 3,3 km/h (1 Bft) W-NW 290 ° 22 min 0,0 UV-I 54 W/m² 8,6 °C 11,6 °C 6,4 km/h (2 Bft)
06.09.2026 06:30 11,2 °C 8,9 °C 16,1 °C 82 % 1025,7 hPa 0,0 l/m² 3,0 km/h (1 Bft) NW 305 ° 0 min 0,0 UV-I 0 W/m² 8,2 °C 11,2 °C 8,0 km/h (2 Bft)
06.09.2026 05:30 11,9 °C 9,4 °C 16,1 °C 80 % 1025,4 hPa 0,0 l/m² 2,2 km/h (1 Bft) N-NW 327 ° 0 min 0,0 UV-I 0 W/m² 8,6 °C 11,9 °C 6,4 km/h (2 Bft)
06.09.2026 04:30 12,7 °C 11,1 °C 16,1 °C 78 % 1025,2 hPa 0,0 l/m² 7,4 km/h (2 Bft) N-NW 327 ° 0 min 0,0 UV-I 0 W/m² 9,0 °C 12,7 °C 12,9 km/h (3 Bft)
06.09.2026 03:30 12,9 °C 10,6 °C 16,1 °C 77 % 1024,5 hPa 0,0 l/m² 4,3 km/h (1 Bft) NW 323 ° 0 min 0,0 UV-I 0 W/m² 9,0 °C 12,9 °C 9,7 km/h (2 Bft)
06.09.2026 02:30 13,2 °C 11,1 °C 16,7 °C 77 % 1024,3 hPa 0,0 l/m² 5,8 km/h (2 Bft) W-NW 283 ° 0 min 0,0 UV-I 0 W/m² 9,3 °C 13,2 °C 12,9 km/h (3 Bft)
06.09.2026 01:30 13,6 °C 11,1 °C 16,7 °C 76 % 1023,9 hPa 0,0 l/m² 3,3 km/h (1 Bft) NW 315 ° 0 min 0,0 UV-I 0 W/m² 9,4 °C 13,6 °C 9,7 km/h (2 Bft)
06.09.2026 00:30 14,3 °C 12,2 °C 16,7 °C 74 % 1023,5 hPa 0,0 l/m² 6,6 km/h (2 Bft) NW 306 ° 0 min 0,0 UV-I 0 W/m² 9,7 °C 14,3 °C 11,3 km/h (2 Bft)
06.09.2026 00:00 14,7 °C 11,7 °C 16,7 °C 73 % 1023,1 hPa 0,0 l/m² 2,8 km/h (1 Bft) N-NW 329 ° 0 min 0,0 UV-I 0 W/m² 9,9 °C 14,7 °C 8,0 km/h (2 Bft)
_ Min-Zeit 06:50 22:30 11:36 17:56 00:02 - 22:24 - - - - - 06:36 06:50 22:24
Minimum _ 11,1 °C 7,8 °C 15,6 °C 50 % 1023,0 hPa - 0,0 km/h (0 Bft) - - - - - 8,2 °C 11,1 °C 0,0 km/h (0 Bft)
_ Max-Zeit 16:46 15:32 20:30 22:30 10:44 22:30 15:38 - - 19:34 12:28 12:32 15:58 16:46 11:16
Maximum _ 21,8 °C 30,0 °C 17,2 °C 84 % 1027,6 hPa 0,0 l/m² 13,0 km/h
N-NW (3 Bft)
- - 2 min 4,3 UV-I 956 W/m² 11,5 °C 21,8 °C 22,5 km/h
N (4 Bft)
Durchschnitt _ 15,9 °C 15,5 °C 16,5 °C 68 % 1026,1 hPa #0,0 l/m² 4,4 km/h (1 Bft) NW - #8:46 h 2,1 UV-I 372 W/m² 9,7 °C 15,9 °C 8,6 km/h (2 Bft)